CYNR

METAR CYNR 221900Z AUTO 16005KT 7SM 26/12 A3011 RMK AO2 SLP194
METAR
LOCATION
CYNR
DATE - TIME
221900Z
WIND
160 TRUE @ 5 KNOTS
VISIBILITY
7SM
RUNWAY VISUAL RANGE
NOT REPORTED
WEATHER
CLOUDINESS
TEMP / DEWPOINT
26 ºC / 12 ºC
ALTIMETER
30.11 in. Hg
RECENT WEATHER
NOT REPORTED
WIND SHEAR
NOT REPORTED
REMARKS
RMK AO2 SLP194
SEA LEVEL PRESSURE: hPa

CYNR

METAR CYNR 221800Z AUTO 16006KT 120V190 8SM CLR 25/12 A3012 RMK AO2 SLP196
METAR
LOCATION
CYNR
DATE - TIME
221800Z
WIND
160 TRUE @ 6 KNOTS VARYING 120 TO 190
VISIBILITY
8SM
RUNWAY VISUAL RANGE
NOT REPORTED
WEATHER
CLOUDINESS
CLR
TEMP / DEWPOINT
25 ºC / 12 ºC
ALTIMETER
30.12 in. Hg
RECENT WEATHER
NOT REPORTED
WIND SHEAR
NOT REPORTED
REMARKS
RMK AO2 SLP196
SEA LEVEL PRESSURE: hPa

CYNR

METAR CYNR 221700Z AUTO 20002KT 8SM CLR 23/13 A3012 RMK AO2 SLP198
METAR
LOCATION
CYNR
DATE - TIME
221700Z
WIND
200 TRUE @ 2 KNOTS
VISIBILITY
8SM
RUNWAY VISUAL RANGE
NOT REPORTED
WEATHER
CLOUDINESS
CLR
TEMP / DEWPOINT
23 ºC / 13 ºC
ALTIMETER
30.12 in. Hg
RECENT WEATHER
NOT REPORTED
WIND SHEAR
NOT REPORTED
REMARKS
RMK AO2 SLP198
SEA LEVEL PRESSURE: hPa

Your time UTC time
 
 
Weather data provided by AXYS Technologies Inc., www.axystechnologies.com
 
Station History